sensor_id;sensor_type;location;lat;lon;timestamp;pressure;altitude;pressure_sealevel;temperature;humidity
82035;BME280;71599;49.892;18.914;2024-02-21T00:03:36;99420.03;;;4.48;100.00
82035;BME280;71599;49.892;18.914;2024-02-21T00:08:37;99411.00;;;4.53;100.00
82035;BME280;71599;49.892;18.914;2024-02-21T00:13:39;99409.91;;;4.54;100.00
82035;BME280;71599;49.892;18.914;2024-02-21T00:18:40;99407.94;;;4.46;100.00
82035;BME280;71599;49.892;18.914;2024-02-21T00:23:41;99397.19;;;4.41;100.00
82035;BME280;71599;49.892;18.914;2024-02-21T00:28:43;99397.31;;;4.36;100.00
82035;BME280;71599;49.892;18.914;2024-02-21T00:33:44;99390.22;;;4.40;100.00
82035;BME280;71599;49.892;18.914;2024-02-21T00:38:45;99383.78;;;4.36;100.00
82035;BME280;71599;49.892;18.914;2024-02-21T00:43:47;99370.75;;;4.38;100.00
82035;BME280;71599;49.892;18.914;2024-02-21T00:48:48;99373.34;;;4.43;100.00
82035;BME280;71599;49.892;18.914;2024-02-21T00:53:49;99362.00;;;4.41;100.00
82035;BME280;71599;49.892;18.914;2024-02-21T00:58:51;99362.09;;;4.49;100.00
82035;BME280;71599;49.892;18.914;2024-02-21T01:03:52;99355.66;;;4.59;100.00
82035;BME280;71599;49.892;18.914;2024-02-21T01:08:53;99353.16;;;4.63;100.00
82035;BME280;71599;49.892;18.914;2024-02-21T01:13:56;99356.03;;;4.66;100.00
82035;BME280;71599;49.892;18.914;2024-02-21T01:18:57;99360.66;;;4.66;100.00
82035;BME280;71599;49.892;18.914;2024-02-21T01:23:58;99345.22;;;4.66;100.00
82035;BME280;71599;49.892;18.914;2024-02-21T01:29:00;99351.25;;;4.63;100.00
82035;BME280;71599;49.892;18.914;2024-02-21T01:34:01;99338.81;;;4.62;100.00
82035;BME280;71599;49.892;18.914;2024-02-21T01:39:02;99331.78;;;4.61;100.00
82035;BME280;71599;49.892;18.914;2024-02-21T01:44:05;99330.81;;;4.57;100.00
82035;BME280;71599;49.892;18.914;2024-02-21T01:49:05;99327.34;;;4.65;100.00
82035;BME280;71599;49.892;18.914;2024-02-21T01:54:06;99318.13;;;4.66;100.00
82035;BME280;71599;49.892;18.914;2024-02-21T01:59:09;99317.88;;;4.54;100.00
82035;BME280;71599;49.892;18.914;2024-02-21T02:04:11;99322.56;;;4.62;100.00
82035;BME280;71599;49.892;18.914;2024-02-21T02:09:12;99312.25;;;4.64;100.00
82035;BME280;71599;49.892;18.914;2024-02-21T02:14:15;99311.13;;;4.65;100.00
82035;BME280;71599;49.892;18.914;2024-02-21T02:19:16;99312.53;;;4.63;100.00
82035;BME280;71599;49.892;18.914;2024-02-21T02:24:19;99311.38;;;4.55;100.00
82035;BME280;71599;49.892;18.914;2024-02-21T02:29:20;99303.16;;;4.46;100.00
82035;BME280;71599;49.892;18.914;2024-02-21T02:34:21;99306.63;;;4.38;100.00
82035;BME280;71599;49.892;18.914;2024-02-21T02:39:23;99304.72;;;4.39;100.00
82035;BME280;71599;49.892;18.914;2024-02-21T02:44:24;99301.69;;;4.40;100.00
82035;BME280;71599;49.892;18.914;2024-02-21T02:49:25;99307.19;;;4.49;100.00
82035;BME280;71599;49.892;18.914;2024-02-21T02:54:27;99307.06;;;4.54;100.00
82035;BME280;71599;49.892;18.914;2024-02-21T02:59:28;99290.63;;;4.50;100.00
82035;BME280;71599;49.892;18.914;2024-02-21T03:04:29;99271.25;;;4.57;100.00
82035;BME280;71599;49.892;18.914;2024-02-21T03:09:32;99297.91;;;4.64;100.00
82035;BME280;71599;49.892;18.914;2024-02-21T03:14:32;99294.09;;;4.65;100.00
82035;BME280;71599;49.892;18.914;2024-02-21T03:19:33;99294.69;;;4.62;100.00
82035;BME280;71599;49.892;18.914;2024-02-21T03:24:36;99294.75;;;4.48;100.00
82035;BME280;71599;49.892;18.914;2024-02-21T03:29:37;99290.97;;;4.35;100.00
82035;BME280;71599;49.892;18.914;2024-02-21T03:34:38;99281.69;;;4.28;100.00
82035;BME280;71599;49.892;18.914;2024-02-21T03:39:40;99282.81;;;4.27;100.00
82035;BME280;71599;49.892;18.914;2024-02-21T03:44:41;99275.38;;;4.32;100.00
82035;BME280;71599;49.892;18.914;2024-02-21T03:49:42;99267.13;;;4.37;100.00
82035;BME280;71599;49.892;18.914;2024-02-21T03:54:44;99264.41;;;4.37;100.00
82035;BME280;71599;49.892;18.914;2024-02-21T03:59:45;99268.34;;;4.31;100.00
82035;BME280;71599;49.892;18.914;2024-02-21T04:04:46;99261.97;;;4.27;100.00
82035;BME280;71599;49.892;18.914;2024-02-21T04:09:48;99270.25;;;4.31;100.00
82035;BME280;71599;49.892;18.914;2024-02-21T04:14:49;99274.34;;;4.28;100.00
82035;BME280;71599;49.892;18.914;2024-02-21T04:19:50;99264.66;;;4.27;100.00
82035;BME280;71599;49.892;18.914;2024-02-21T04:24:52;99265.13;;;4.29;100.00
82035;BME280;71599;49.892;18.914;2024-02-21T04:29:53;99259.72;;;4.29;100.00
82035;BME280;71599;49.892;18.914;2024-02-21T04:34:54;99259.47;;;4.17;100.00
82035;BME280;71599;49.892;18.914;2024-02-21T04:39:56;99264.50;;;4.10;100.00
82035;BME280;71599;49.892;18.914;2024-02-21T04:44:57;99258.47;;;4.13;100.00
82035;BME280;71599;49.892;18.914;2024-02-21T04:49:58;99252.97;;;4.18;100.00
82035;BME280;71599;49.892;18.914;2024-02-21T04:55:00;99249.31;;;4.23;100.00
82035;BME280;71599;49.892;18.914;2024-02-21T05:00:02;99250.75;;;4.20;100.00
82035;BME280;71599;49.892;18.914;2024-02-21T05:05:03;99245.34;;;4.20;100.00
82035;BME280;71599;49.892;18.914;2024-02-21T05:10:07;99241.03;;;4.19;100.00
82035;BME280;71599;49.892;18.914;2024-02-21T05:15:08;99230.13;;;4.10;100.00
82035;BME280;71599;49.892;18.914;2024-02-21T05:20:10;99228.34;;;4.06;100.00
82035;BME280;71599;49.892;18.914;2024-02-21T05:25:12;99222.75;;;4.02;100.00
82035;BME280;71599;49.892;18.914;2024-02-21T05:30:13;99234.84;;;4.05;100.00
82035;BME280;71599;49.892;18.914;2024-02-21T05:35:14;99224.25;;;4.08;100.00
82035;BME280;71599;49.892;18.914;2024-02-21T05:40:16;99230.50;;;3.95;100.00
82035;BME280;71599;49.892;18.914;2024-02-21T05:45:18;99213.59;;;3.90;100.00
82035;BME280;71599;49.892;18.914;2024-02-21T05:50:18;99220.88;;;3.89;100.00
82035;BME280;71599;49.892;18.914;2024-02-21T05:55:21;99218.28;;;3.84;100.00
82035;BME280;71599;49.892;18.914;2024-02-21T06:00:22;99214.84;;;3.92;100.00
82035;BME280;71599;49.892;18.914;2024-02-21T06:05:23;99213.59;;;4.12;100.00
82035;BME280;71599;49.892;18.914;2024-02-21T06:10:26;99206.53;;;4.25;100.00
82035;BME280;71599;49.892;18.914;2024-02-21T06:15:27;99208.41;;;4.38;100.00
82035;BME280;71599;49.892;18.914;2024-02-21T06:20:28;99198.53;;;4.42;100.00
82035;BME280;71599;49.892;18.914;2024-02-21T06:25:30;99203.59;;;4.35;100.00
82035;BME280;71599;49.892;18.914;2024-02-21T06:30:31;99211.41;;;4.36;100.00
82035;BME280;71599;49.892;18.914;2024-02-21T06:35:32;99203.41;;;4.31;100.00
82035;BME280;71599;49.892;18.914;2024-02-21T06:40:34;99208.31;;;4.29;100.00
82035;BME280;71599;49.892;18.914;2024-02-21T06:45:35;99201.88;;;4.39;100.00
82035;BME280;71599;49.892;18.914;2024-02-21T06:50:36;99207.97;;;4.44;100.00
82035;BME280;71599;49.892;18.914;2024-02-21T06:55:38;99212.16;;;4.50;100.00
82035;BME280;71599;49.892;18.914;2024-02-21T07:00:39;99202.50;;;4.58;100.00
82035;BME280;71599;49.892;18.914;2024-02-21T07:05:40;99206.97;;;4.63;100.00
82035;BME280;71599;49.892;18.914;2024-02-21T07:10:42;99208.00;;;4.75;100.00
82035;BME280;71599;49.892;18.914;2024-02-21T07:15:43;99213.44;;;4.84;100.00
82035;BME280;71599;49.892;18.914;2024-02-21T07:20:44;99203.41;;;4.84;100.00
82035;BME280;71599;49.892;18.914;2024-02-21T07:25:46;99203.28;;;4.89;100.00
82035;BME280;71599;49.892;18.914;2024-02-21T07:30:47;99212.59;;;5.06;100.00
82035;BME280;71599;49.892;18.914;2024-02-21T07:35:48;99197.31;;;5.10;100.00
82035;BME280;71599;49.892;18.914;2024-02-21T07:40:51;99190.72;;;4.93;100.00
82035;BME280;71599;49.892;18.914;2024-02-21T07:45:52;99188.09;;;5.11;100.00
82035;BME280;71599;49.892;18.914;2024-02-21T07:50:53;99187.63;;;5.26;100.00
82035;BME280;71599;49.892;18.914;2024-02-21T07:55:55;99176.22;;;5.38;100.00
82035;BME280;71599;49.892;18.914;2024-02-21T08:00:56;99177.66;;;5.52;100.00
82035;BME280;71599;49.892;18.914;2024-02-21T08:05:57;99177.97;;;5.51;100.00
82035;BME280;71599;49.892;18.914;2024-02-21T08:10:59;99176.75;;;5.83;100.00
82035;BME280;71599;49.892;18.914;2024-02-21T08:16:00;99164.31;;;6.16;100.00
82035;BME280;71599;49.892;18.914;2024-02-21T08:21:04;99153.44;;;6.50;100.00
82035;BME280;71599;49.892;18.914;2024-02-21T08:26:06;99152.91;;;7.04;100.00
82035;BME280;71599;49.892;18.914;2024-02-21T08:31:07;99147.16;;;7.34;100.00
82035;BME280;71599;49.892;18.914;2024-02-21T08:36:08;99144.34;;;7.52;100.00
82035;BME280;71599;49.892;18.914;2024-02-21T08:41:10;99142.78;;;7.51;100.00
82035;BME280;71599;49.892;18.914;2024-02-21T08:46:12;99133.75;;;7.59;100.00
82035;BME280;71599;49.892;18.914;2024-02-21T08:51:13;99134.53;;;7.39;100.00
82035;BME280;71599;49.892;18.914;2024-02-21T08:56:15;99124.94;;;7.62;100.00
82035;BME280;71599;49.892;18.914;2024-02-21T09:01:16;99131.63;;;8.06;100.00
82035;BME280;71599;49.892;18.914;2024-02-21T09:06:17;99119.66;;;8.19;100.00
82035;BME280;71599;49.892;18.914;2024-02-21T09:11:20;99114.78;;;8.25;100.00
82035;BME280;71599;49.892;18.914;2024-02-21T09:16:20;99120.00;;;8.18;100.00
82035;BME280;71599;49.892;18.914;2024-02-21T09:21:21;99120.09;;;8.42;100.00
82035;BME280;71599;49.892;18.914;2024-02-21T09:26:24;99118.91;;;8.76;98.16
82035;BME280;71599;49.892;18.914;2024-02-21T09:31:25;99122.88;;;8.66;96.44
82035;BME280;71599;49.892;18.914;2024-02-21T09:36:26;99122.09;;;8.33;98.59
82035;BME280;71599;49.892;18.914;2024-02-21T09:41:28;99118.38;;;8.49;99.35
82035;BME280;71599;49.892;18.914;2024-02-21T09:46:39;99117.31;;;8.75;94.30
82035;BME280;71599;49.892;18.914;2024-02-21T09:51:43;99128.41;;;8.25;93.05
82035;BME280;71599;49.892;18.914;2024-02-21T09:56:47;99123.72;;;7.92;92.67
82035;BME280;71599;49.892;18.914;2024-02-21T10:01:48;99127.31;;;8.38;95.65
82035;BME280;71599;49.892;18.914;2024-02-21T10:06:49;99121.06;;;8.82;96.73
82035;BME280;71599;49.892;18.914;2024-02-21T10:11:51;99113.00;;;8.98;91.08
82035;BME280;71599;49.892;18.914;2024-02-21T10:16:57;99108.25;;;9.07;87.52
82035;BME280;71599;49.892;18.914;2024-02-21T10:22:02;99102.88;;;8.98;87.93
82035;BME280;71599;49.892;18.914;2024-02-21T10:27:08;99087.19;;;8.47;87.02
82035;BME280;71599;49.892;18.914;2024-02-21T10:32:11;99100.72;;;8.80;90.64
82035;BME280;71599;49.892;18.914;2024-02-21T10:37:12;99090.63;;;8.92;88.75
82035;BME280;71599;49.892;18.914;2024-02-21T10:42:16;99080.06;;;8.54;86.50
82035;BME280;71599;49.892;18.914;2024-02-21T10:47:19;99076.03;;;8.40;88.84
82035;BME280;71599;49.892;18.914;2024-02-21T10:52:28;99075.16;;;8.48;88.38
82035;BME280;71599;49.892;18.914;2024-02-21T10:57:34;99080.75;;;8.18;88.23
82035;BME280;71599;49.892;18.914;2024-02-21T11:02:36;99073.22;;;8.36;87.62
82035;BME280;71599;49.892;18.914;2024-02-21T11:07:37;99067.06;;;8.27;84.58
82035;BME280;71599;49.892;18.914;2024-02-21T11:12:39;99053.09;;;8.29;87.33
82035;BME280;71599;49.892;18.914;2024-02-21T11:17:40;99052.22;;;8.37;84.10
82035;BME280;71599;49.892;18.914;2024-02-21T11:22:42;99041.53;;;8.32;86.25
82035;BME280;71599;49.892;18.914;2024-02-21T11:27:46;99025.56;;;8.42;83.59
82035;BME280;71599;49.892;18.914;2024-02-21T11:32:47;99028.63;;;8.53;85.27
82035;BME280;71599;49.892;18.914;2024-02-21T11:37:48;99028.72;;;8.56;83.61
82035;BME280;71599;49.892;18.914;2024-02-21T11:42:50;99011.50;;;8.52;82.67
82035;BME280;71599;49.892;18.914;2024-02-21T11:47:52;99013.19;;;8.57;82.39
82035;BME280;71599;49.892;18.914;2024-02-21T11:52:54;99013.19;;;8.81;82.05
82035;BME280;71599;49.892;18.914;2024-02-21T11:57:56;99010.34;;;8.90;82.57
82035;BME280;71599;49.892;18.914;2024-02-21T12:02:57;98997.53;;;8.66;82.28
82035;BME280;71599;49.892;18.914;2024-02-21T12:07:59;98994.69;;;8.50;83.55
82035;BME280;71599;49.892;18.914;2024-02-21T12:13:08;98999.78;;;8.40;84.19
82035;BME280;71599;49.892;18.914;2024-02-21T12:18:10;98995.03;;;8.49;89.56
82035;BME280;71599;49.892;18.914;2024-02-21T12:23:11;98998.19;;;8.27;95.65
82035;BME280;71599;49.892;18.914;2024-02-21T12:28:13;98999.44;;;8.29;100.00
82035;BME280;71599;49.892;18.914;2024-02-21T12:33:14;99001.66;;;8.15;100.00
82035;BME280;71599;49.892;18.914;2024-02-21T12:38:15;98998.47;;;7.68;100.00
82035;BME280;71599;49.892;18.914;2024-02-21T12:43:17;98986.59;;;7.52;100.00
82035;BME280;71599;49.892;18.914;2024-02-21T12:48:18;98987.28;;;7.49;100.00
82035;BME280;71599;49.892;18.914;2024-02-21T12:53:20;98990.66;;;7.46;100.00
82035;BME280;71599;49.892;18.914;2024-02-21T12:58:22;98978.91;;;7.54;100.00
82035;BME280;71599;49.892;18.914;2024-02-21T13:03:23;98964.66;;;7.57;100.00
82035;BME280;71599;49.892;18.914;2024-02-21T13:08:25;98963.28;;;7.51;100.00
82035;BME280;71599;49.892;18.914;2024-02-21T13:13:28;98963.28;;;7.51;100.00
82035;BME280;71599;49.892;18.914;2024-02-21T13:18:29;98952.94;;;7.44;100.00
82035;BME280;71599;49.892;18.914;2024-02-21T13:23:30;98945.97;;;7.34;100.00
82035;BME280;71599;49.892;18.914;2024-02-21T13:28:32;98946.50;;;7.28;100.00
82035;BME280;71599;49.892;18.914;2024-02-21T13:33:33;98950.13;;;7.20;100.00
82035;BME280;71599;49.892;18.914;2024-02-21T13:38:34;98946.00;;;6.93;100.00
82035;BME280;71599;49.892;18.914;2024-02-21T13:43:36;98938.91;;;6.80;100.00
82035;BME280;71599;49.892;18.914;2024-02-21T13:48:37;98926.44;;;6.58;100.00
82035;BME280;71599;49.892;18.914;2024-02-21T13:53:38;98928.25;;;6.45;100.00
82035;BME280;71599;49.892;18.914;2024-02-21T13:58:40;98927.06;;;6.55;100.00
82035;BME280;71599;49.892;18.914;2024-02-21T14:03:41;98933.78;;;6.58;100.00
82035;BME280;71599;49.892;18.914;2024-02-21T14:08:42;98931.66;;;6.63;100.00
82035;BME280;71599;49.892;18.914;2024-02-21T14:13:44;98926.72;;;6.65;100.00
82035;BME280;71599;49.892;18.914;2024-02-21T14:18:45;98929.59;;;6.60;100.00
82035;BME280;71599;49.892;18.914;2024-02-21T14:23:46;98911.78;;;6.50;100.00
82035;BME280;71599;49.892;18.914;2024-02-21T14:28:48;98912.09;;;6.49;100.00
82035;BME280;71599;49.892;18.914;2024-02-21T14:33:49;98903.69;;;6.42;100.00
82035;BME280;71599;49.892;18.914;2024-02-21T14:38:50;98890.06;;;6.50;100.00
82035;BME280;71599;49.892;18.914;2024-02-21T14:43:52;98869.63;;;6.53;100.00
82035;BME280;71599;49.892;18.914;2024-02-21T14:48:53;98865.09;;;6.57;100.00
82035;BME280;71599;49.892;18.914;2024-02-21T14:53:54;98857.81;;;6.49;100.00
82035;BME280;71599;49.892;18.914;2024-02-21T14:58:57;98831.97;;;6.43;100.00
82035;BME280;71599;49.892;18.914;2024-02-21T15:03:57;98835.88;;;6.33;100.00
82035;BME280;71599;49.892;18.914;2024-02-21T15:08:58;98829.97;;;6.31;100.00
82035;BME280;71599;49.892;18.914;2024-02-21T15:14:06;98830.78;;;6.32;100.00
82035;BME280;71599;49.892;18.914;2024-02-21T15:19:07;98848.53;;;6.21;100.00
82035;BME280;71599;49.892;18.914;2024-02-21T15:24:08;98841.63;;;6.02;100.00
82035;BME280;71599;49.892;18.914;2024-02-21T15:29:10;98836.53;;;6.01;100.00
82035;BME280;71599;49.892;18.914;2024-02-21T15:34:11;98825.53;;;5.97;100.00
82035;BME280;71599;49.892;18.914;2024-02-21T15:39:12;98821.94;;;5.85;100.00
82035;BME280;71599;49.892;18.914;2024-02-21T15:44:14;98800.44;;;5.80;100.00
82035;BME280;71599;49.892;18.914;2024-02-21T15:49:15;98800.47;;;5.71;100.00
82035;BME280;71599;49.892;18.914;2024-02-21T15:54:16;98798.53;;;5.71;100.00
82035;BME280;71599;49.892;18.914;2024-02-21T15:59:18;98796.84;;;5.58;100.00
82035;BME280;71599;49.892;18.914;2024-02-21T16:04:19;98795.75;;;5.51;100.00
82035;BME280;71599;49.892;18.914;2024-02-21T16:09:22;98804.06;;;5.46;100.00
82035;BME280;71599;49.892;18.914;2024-02-21T16:14:24;98813.31;;;5.45;100.00
82035;BME280;71599;49.892;18.914;2024-02-21T16:19:25;98791.38;;;5.29;100.00
82035;BME280;71599;49.892;18.914;2024-02-21T16:24:26;98823.59;;;5.30;100.00
82035;BME280;71599;49.892;18.914;2024-02-21T16:29:29;98815.13;;;5.32;100.00
82035;BME280;71599;49.892;18.914;2024-02-21T16:34:31;98807.66;;;5.29;100.00
82035;BME280;71599;49.892;18.914;2024-02-21T16:39:32;98806.84;;;5.37;100.00
82035;BME280;71599;49.892;18.914;2024-02-21T16:44:34;98804.44;;;5.36;100.00
82035;BME280;71599;49.892;18.914;2024-02-21T16:49:35;98806.97;;;5.32;100.00
82035;BME280;71599;49.892;18.914;2024-02-21T16:54:36;98795.38;;;5.23;100.00
82035;BME280;71599;49.892;18.914;2024-02-21T16:59:38;98795.91;;;5.08;100.00
82035;BME280;71599;49.892;18.914;2024-02-21T17:04:39;98786.88;;;4.86;100.00
82035;BME280;71599;49.892;18.914;2024-02-21T17:09:40;98779.41;;;4.75;100.00
82035;BME280;71599;49.892;18.914;2024-02-21T17:14:43;98777.00;;;4.73;100.00
82035;BME280;71599;49.892;18.914;2024-02-21T17:19:43;98772.88;;;4.67;100.00
82035;BME280;71599;49.892;18.914;2024-02-21T17:24:44;98767.47;;;4.67;100.00
82035;BME280;71599;49.892;18.914;2024-02-21T17:29:47;98763.34;;;4.70;100.00
82035;BME280;71599;49.892;18.914;2024-02-21T17:34:47;98752.38;;;4.58;100.00
82035;BME280;71599;49.892;18.914;2024-02-21T17:39:48;98751.09;;;4.55;100.00
82035;BME280;71599;49.892;18.914;2024-02-21T17:44:51;98746.94;;;4.58;100.00
82035;BME280;71599;49.892;18.914;2024-02-21T17:49:52;98739.16;;;4.56;100.00
82035;BME280;71599;49.892;18.914;2024-02-21T17:54:52;98732.94;;;4.56;100.00
82035;BME280;71599;49.892;18.914;2024-02-21T17:59:55;98726.91;;;4.59;100.00
82035;BME280;71599;49.892;18.914;2024-02-21T18:04:55;98733.06;;;4.59;100.00
82035;BME280;71599;49.892;18.914;2024-02-21T18:09:56;98722.09;;;4.64;100.00
82035;BME280;71599;49.892;18.914;2024-02-21T18:14:59;98731.66;;;4.70;100.00
82035;BME280;71599;49.892;18.914;2024-02-21T18:20:00;98713.97;;;4.64;100.00
82035;BME280;71599;49.892;18.914;2024-02-21T18:25:01;98724.81;;;4.64;100.00
82035;BME280;71599;49.892;18.914;2024-02-21T18:30:05;98719.69;;;4.71;100.00
82035;BME280;71599;49.892;18.914;2024-02-21T18:35:06;98710.78;;;4.62;100.00
82035;BME280;71599;49.892;18.914;2024-02-21T18:40:07;98695.66;;;4.61;100.00
82035;BME280;71599;49.892;18.914;2024-02-21T18:45:10;98688.50;;;4.57;100.00
82035;BME280;71599;49.892;18.914;2024-02-21T18:50:11;98685.63;;;4.62;100.00
82035;BME280;71599;49.892;18.914;2024-02-21T18:55:12;98677.38;;;4.58;100.00
82035;BME280;71599;49.892;18.914;2024-02-21T19:00:15;98671.47;;;4.65;100.00
82035;BME280;71599;49.892;18.914;2024-02-21T19:05:16;98662.88;;;4.63;100.00
82035;BME280;71599;49.892;18.914;2024-02-21T19:10:17;98656.34;;;4.64;100.00
82035;BME280;71599;49.892;18.914;2024-02-21T19:15:19;98645.16;;;4.65;100.00
82035;BME280;71599;49.892;18.914;2024-02-21T19:20:20;98637.06;;;4.65;100.00
82035;BME280;71599;49.892;18.914;2024-02-21T19:25:21;98638.19;;;4.64;100.00
82035;BME280;71599;49.892;18.914;2024-02-21T19:30:23;98632.44;;;4.66;100.00
82035;BME280;71599;49.892;18.914;2024-02-21T19:35:24;98629.91;;;4.69;100.00
82035;BME280;71599;49.892;18.914;2024-02-21T19:40:25;98637.16;;;4.77;100.00
82035;BME280;71599;49.892;18.914;2024-02-21T19:45:28;98623.63;;;4.77;100.00
82035;BME280;71599;49.892;18.914;2024-02-21T19:50:29;98627.00;;;4.74;100.00
82035;BME280;71599;49.892;18.914;2024-02-21T19:55:29;98622.69;;;4.73;100.00
82035;BME280;71599;49.892;18.914;2024-02-21T20:00:32;98623.00;;;4.72;100.00
82035;BME280;71599;49.892;18.914;2024-02-21T20:05:33;98619.50;;;4.71;100.00
82035;BME280;71599;49.892;18.914;2024-02-21T20:10:34;98619.69;;;4.66;100.00
82035;BME280;71599;49.892;18.914;2024-02-21T20:15:36;98608.06;;;4.66;100.00
82035;BME280;71599;49.892;18.914;2024-02-21T20:20:37;98613.66;;;4.69;100.00
82035;BME280;71599;49.892;18.914;2024-02-21T20:25:38;98606.78;;;4.72;100.00
82035;BME280;71599;49.892;18.914;2024-02-21T20:30:41;98583.69;;;4.74;100.00
82035;BME280;71599;49.892;18.914;2024-02-21T20:35:42;98576.88;;;4.68;100.00
82035;BME280;71599;49.892;18.914;2024-02-21T20:40:43;98580.50;;;4.72;100.00
82035;BME280;71599;49.892;18.914;2024-02-21T20:45:45;98573.00;;;4.78;100.00
82035;BME280;71599;49.892;18.914;2024-02-21T20:50:46;98558.72;;;4.69;100.00
82035;BME280;71599;49.892;18.914;2024-02-21T20:55:47;98556.44;;;4.79;100.00
82035;BME280;71599;49.892;18.914;2024-02-21T21:00:49;98562.63;;;4.80;100.00
82035;BME280;71599;49.892;18.914;2024-02-21T21:05:50;98559.13;;;4.79;100.00
82035;BME280;71599;49.892;18.914;2024-02-21T21:10:51;98551.00;;;4.79;100.00
82035;BME280;71599;49.892;18.914;2024-02-21T21:15:53;98539.53;;;4.82;100.00
82035;BME280;71599;49.892;18.914;2024-02-21T21:20:54;98528.34;;;4.84;100.00
82035;BME280;71599;49.892;18.914;2024-02-21T21:25:55;98534.06;;;4.91;100.00
82035;BME280;71599;49.892;18.914;2024-02-21T21:30:58;98508.25;;;4.93;100.00
82035;BME280;71599;49.892;18.914;2024-02-21T21:35:59;98505.16;;;5.04;100.00
82035;BME280;71599;49.892;18.914;2024-02-21T21:41:00;98499.72;;;5.04;100.00
82035;BME280;71599;49.892;18.914;2024-02-21T21:46:02;98488.25;;;5.07;100.00
82035;BME280;71599;49.892;18.914;2024-02-21T21:51:04;98481.50;;;5.13;100.00
82035;BME280;71599;49.892;18.914;2024-02-21T21:56:05;98461.28;;;5.10;100.00
82035;BME280;71599;49.892;18.914;2024-02-21T22:01:09;98447.41;;;5.12;100.00
82035;BME280;71599;49.892;18.914;2024-02-21T22:06:10;98446.69;;;5.23;100.00
82035;BME280;71599;49.892;18.914;2024-02-21T22:11:11;98435.69;;;5.20;100.00
82035;BME280;71599;49.892;18.914;2024-02-21T22:16:13;98429.94;;;5.21;100.00
82035;BME280;71599;49.892;18.914;2024-02-21T22:21:14;98419.13;;;5.21;100.00
82035;BME280;71599;49.892;18.914;2024-02-21T22:26:15;98408.75;;;5.23;100.00
82035;BME280;71599;49.892;18.914;2024-02-21T22:31:17;98406.16;;;5.27;100.00
82035;BME280;71599;49.892;18.914;2024-02-21T22:36:18;98396.13;;;5.27;100.00
82035;BME280;71599;49.892;18.914;2024-02-21T22:41:19;98384.47;;;5.27;100.00
82035;BME280;71599;49.892;18.914;2024-02-21T22:46:22;98367.56;;;5.30;100.00
82035;BME280;71599;49.892;18.914;2024-02-21T22:51:23;98371.41;;;5.29;100.00
82035;BME280;71599;49.892;18.914;2024-02-21T22:56:23;98348.81;;;5.25;100.00
82035;BME280;71599;49.892;18.914;2024-02-21T23:01:26;98341.81;;;5.24;100.00
82035;BME280;71599;49.892;18.914;2024-02-21T23:06:27;98351.16;;;5.26;100.00
82035;BME280;71599;49.892;18.914;2024-02-21T23:11:28;98351.06;;;5.23;100.00
82035;BME280;71599;49.892;18.914;2024-02-21T23:16:30;98342.06;;;5.31;100.00
82035;BME280;71599;49.892;18.914;2024-02-21T23:21:31;98322.16;;;5.27;100.00
82035;BME280;71599;49.892;18.914;2024-02-21T23:26:32;98315.16;;;5.26;100.00
82035;BME280;71599;49.892;18.914;2024-02-21T23:31:34;98310.22;;;5.28;100.00
82035;BME280;71599;49.892;18.914;2024-02-21T23:36:38;98308.50;;;5.23;100.00
82035;BME280;71599;49.892;18.914;2024-02-21T23:41:39;98309.75;;;5.26;100.00
82035;BME280;71599;49.892;18.914;2024-02-21T23:46:41;98309.88;;;5.29;100.00
82035;BME280;71599;49.892;18.914;2024-02-21T23:51:42;98293.38;;;5.22;100.00
82035;BME280;71599;49.892;18.914;2024-02-21T23:56:43;98293.72;;;5.21;100.00
